Time;durP1;ratioP1;P1;durP2;ratioP2;P2;SDS_P1;SDS_P2;PMS_P1;PMS_P2;Temp;Humidity;BMP_temperature;BMP_pressure;BME280_temperature;BME280_humidity;BME280_pressure;Samples;Min_cycle;Max_cycle;Signal;HPM_P1;HPM_P2
2023/07/27 00:02:18;;;;;;;0.13;0.13;;;22.10;71.30;;;;;;5023158;28;20046;-79
2023/07/27 00:04:43;;;;;;;0.20;0.20;;;22.10;71.40;;;;;;5054912;28;20056;-78
2023/07/27 00:07:09;;;;;;;0.80;0.10;;;22.10;71.40;;;;;;5023524;28;20575;-79
2023/07/27 00:09:34;;;;;;;0.20;0.20;;;22.20;71.50;;;;;;5022817;28;20045;-78
2023/07/27 00:12:00;;;;;;;0.63;0.20;;;22.10;71.40;;;;;;5023934;28;20121;-78
2023/07/27 00:14:26;;;;;;;0.20;0.20;;;22.10;71.30;;;;;;5023646;28;20042;-79
2023/07/27 00:16:51;;;;;;;0.17;0.10;;;22.10;71.30;;;;;;5015080;28;20503;-79
2023/07/27 00:19:17;;;;;;;0.20;0.20;;;22.10;71.30;;;;;;5024303;28;20117;-78
2023/07/27 00:21:42;;;;;;;0.20;0.20;;;22.10;71.40;;;;;;5022019;28;20041;-78
2023/07/27 00:24:08;;;;;;;0.30;0.20;;;22.10;71.30;;;;;;5019509;28;20033;-78
2023/07/27 00:26:34;;;;;;;0.20;0.20;;;22.10;71.40;;;;;;5020050;28;20622;-78
2023/07/27 00:28:59;;;;;;;0.10;0.10;;;22.10;71.30;;;;;;5023406;28;20408;-78
2023/07/27 00:31:25;;;;;;;0.22;0.20;;;22.10;71.40;;;;;;5025287;28;20059;-79
2023/07/27 00:33:50;;;;;;;0.10;0.10;;;22.10;71.40;;;;;;5020561;28;20053;-79
2023/07/27 00:36:16;;;;;;;0.10;0.10;;;22.10;71.30;;;;;;5021616;28;20576;-79
2023/07/27 00:38:41;;;;;;;0.10;0.10;;;22.10;71.40;;;;;;5020311;28;20117;-79
2023/07/27 00:41:08;;;;;;;0.10;0.10;;;22.10;71.40;;;;;;5024215;28;20046;-78
2023/07/27 00:43:33;;;;;;;0.10;0.10;;;22.10;71.50;;;;;;5020706;28;20046;-78
2023/07/27 00:45:59;;;;;;;0.20;0.20;;;22.10;71.50;;;;;;5022252;28;20411;-79
2023/07/27 00:48:24;;;;;;;0.20;0.20;;;22.10;71.60;;;;;;5020446;28;20033;-79
2023/07/27 00:50:50;;;;;;;0.10;0.10;;;22.10;71.50;;;;;;5023597;28;20058;-79
2023/07/27 00:53:16;;;;;;;0.20;0.20;;;22.10;71.50;;;;;;5026909;28;20075;-79
2023/07/27 00:55:41;;;;;;;0.10;0.10;;;22.10;71.60;;;;;;5023543;28;20481;-79
2023/07/27 00:58:07;;;;;;;0.10;0.10;;;22.10;71.60;;;;;;5009175;28;20068;-79
2023/07/27 01:00:33;;;;;;;0.10;0.10;;;22.10;71.50;;;;;;5005820;28;20526;-78
2023/07/27 01:03:00;;;;;;;1.45;0.20;;;22.10;71.60;;;;;;4988750;28;20462;-79
2023/07/27 01:05:26;;;;;;;0.10;0.10;;;22.10;71.60;;;;;;5022621;28;20111;-79
2023/07/27 01:07:51;;;;;;;0.30;0.30;;;22.10;71.50;;;;;;5024796;28;20495;-79
2023/07/27 01:10:17;;;;;;;0.20;0.20;;;22.10;71.70;;;;;;5022487;28;20064;-79
2023/07/27 01:12:52;;;;;;;0.20;0.20;;;22.10;71.70;;;;;;5006109;28;20041;-78
2023/07/27 01:15:18;;;;;;;0.10;0.10;;;22.10;71.60;;;;;;5053412;28;20053;-79
2023/07/27 01:17:50;;;;;;;0.20;0.20;;;22.10;71.60;;;;;;5005784;28;20516;-78
2023/07/27 01:20:23;;;;;;;0.20;0.20;;;22.10;71.70;;;;;;5019829;28;20702;-78
2023/07/27 01:23:12;;;;;;;0.13;0.13;;;22.10;71.70;;;;;;5035828;28;20064;-78
2023/07/27 01:26:16;;;;;;;0.10;0.10;;;22.10;71.80;;;;;;5021503;28;20049;-79
2023/07/27 01:28:48;;;;;;;0.10;0.10;;;22.10;71.70;;;;;;5020729;28;20060;-78
2023/07/27 01:31:19;;;;;;;0.10;0.10;;;22.10;72.10;;;;;;5023032;28;20049;-78
2023/07/27 01:33:46;;;;;;;0.20;0.10;;;22.10;71.70;;;;;;5001524;28;20553;-79
2023/07/27 01:36:15;;;;;;;0.10;0.10;;;22.10;72.00;;;;;;4994818;28;20145;-78
2023/07/27 01:38:43;;;;;;;0.20;0.20;;;22.10;72.60;;;;;;5051373;28;20029;-79
2023/07/27 01:41:09;;;;;;;0.28;0.10;;;22.10;71.80;;;;;;5018210;28;20076;-78
2023/07/27 01:43:35;;;;;;;0.10;0.10;;;22.10;71.90;;;;;;4990217;28;20302;-78
2023/07/27 01:46:01;;;;;;;0.10;0.10;;;22.10;72.90;;;;;;5007973;28;20125;-78
2023/07/27 01:48:26;;;;;;;0.13;0.13;;;22.10;72.10;;;;;;5010111;28;20477;-79
2023/07/27 01:50:53;;;;;;;0.22;0.22;;;22.10;72.10;;;;;;5026054;28;20045;-79
2023/07/27 01:53:20;;;;;;;0.10;0.10;;;22.10;71.90;;;;;;5026233;28;20128;-79
2023/07/27 01:55:45;;;;;;;0.20;0.20;;;22.10;72.10;;;;;;4992029;28;20052;-78
2023/07/27 01:58:11;;;;;;;0.20;0.20;;;22.10;71.80;;;;;;5009262;28;20045;-79
2023/07/27 02:00:37;;;;;;;0.20;0.20;;;22.10;72.00;;;;;;5008324;28;20465;-78
2023/07/27 02:03:02;;;;;;;0.65;0.30;;;22.10;72.10;;;;;;5027124;28;20049;-78
2023/07/27 02:05:28;;;;;;;0.20;0.20;;;22.10;71.70;;;;;;5012043;28;20550;-79
2023/07/27 02:07:53;;;;;;;0.20;0.20;;;22.10;72.00;;;;;;5011570;28;20085;-78
2023/07/27 02:10:19;;;;;;;0.20;0.20;;;22.10;72.00;;;;;;5025458;28;20056;-79
2023/07/27 02:12:47;;;;;;;0.20;0.20;;;22.10;71.80;;;;;;5008433;28;20152;-78
2023/07/27 02:15:19;;;;;;;0.20;0.20;;;22.00;72.10;;;;;;4993512;28;20128;-79
2023/07/27 02:17:47;;;;;;;0.30;0.30;;;22.10;71.70;;;;;;5023419;28;20143;-78
2023/07/27 02:20:14;;;;;;;0.20;0.20;;;22.10;71.50;;;;;;5011298;28;20052;-79
2023/07/27 02:22:42;;;;;;;0.20;0.20;;;22.10;71.90;;;;;;5054124;28;20096;-78
2023/07/27 02:25:08;;;;;;;0.20;0.20;;;22.00;72.00;;;;;;5024813;28;20045;-79
2023/07/27 02:27:33;;;;;;;0.20;0.20;;;22.10;72.10;;;;;;5022523;28;20470;-79
2023/07/27 02:30:00;;;;;;;0.25;0.25;;;22.10;72.10;;;;;;5009655;28;20065;-78
2023/07/27 02:32:26;;;;;;;0.40;0.20;;;22.00;72.10;;;;;;5007072;28;20091;-79
2023/07/27 02:34:51;;;;;;;0.32;0.32;;;22.00;72.30;;;;;;5021847;28;20042;-78
2023/07/27 02:37:17;;;;;;;0.20;0.20;;;22.00;72.20;;;;;;5031213;28;20110;-79
2023/07/27 02:39:43;;;;;;;0.32;0.30;;;22.10;72.10;;;;;;5023459;28;20037;-78
2023/07/27 02:42:08;;;;;;;0.20;0.20;;;22.10;72.10;;;;;;5028752;28;20140;-79
2023/07/27 02:44:34;;;;;;;0.20;0.20;;;22.00;72.80;;;;;;5025087;28;20049;-79
2023/07/27 02:46:59;;;;;;;0.20;0.20;;;22.10;72.10;;;;;;5010063;28;20432;-79
2023/07/27 02:49:25;;;;;;;0.30;0.30;;;22.00;72.10;;;;;;4988723;28;20249;-78
2023/07/27 02:51:50;;;;;;;0.20;0.20;;;22.00;71.90;;;;;;5024691;28;20064;-78
2023/07/27 02:54:16;;;;;;;0.22;0.22;;;22.00;72.00;;;;;;5009886;28;20045;-79
2023/07/27 02:56:41;;;;;;;0.20;0.20;;;22.00;72.20;;;;;;5009657;28;20052;-79
2023/07/27 02:59:07;;;;;;;0.25;0.25;;;22.00;72.10;;;;;;5011573;28;20103;-78
2023/07/27 03:01:32;;;;;;;0.20;0.17;;;22.00;71.90;;;;;;4990244;28;20041;-79
2023/07/27 03:03:58;;;;;;;0.20;0.20;;;22.00;72.00;;;;;;5006144;28;20521;-79
2023/07/27 03:06:23;;;;;;;0.25;0.25;;;22.00;72.80;;;;;;5022486;28;20037;-78
2023/07/27 03:08:49;;;;;;;0.30;0.30;;;22.00;72.00;;;;;;5024977;28;20033;-79
2023/07/27 03:11:14;;;;;;;0.30;0.30;;;22.00;72.10;;;;;;5025776;28;20128;-78
2023/07/27 03:13:40;;;;;;;0.30;0.30;;;22.00;72.20;;;;;;5029018;28;20064;-78
2023/07/27 03:16:06;;;;;;;0.20;0.20;;;22.00;72.20;;;;;;5026549;28;20507;-78
2023/07/27 03:18:31;;;;;;;0.20;0.20;;;22.00;71.90;;;;;;5007711;28;20045;-78
2023/07/27 03:20:57;;;;;;;0.38;0.38;;;22.00;72.10;;;;;;5025198;28;20128;-78
2023/07/27 03:23:22;;;;;;;0.20;0.20;;;22.00;72.30;;;;;;5026389;28;20057;-79
2023/07/27 03:25:48;;;;;;;0.30;0.30;;;22.00;72.20;;;;;;4989441;28;20049;-78
2023/07/27 03:28:14;;;;;;;0.30;0.30;;;22.00;72.20;;;;;;5024725;28;20060;-79
2023/07/27 03:30:39;;;;;;;0.30;0.30;;;22.00;72.20;;;;;;5021580;28;20049;-79
2023/07/27 03:33:05;;;;;;;0.20;0.20;;;22.00;72.30;;;;;;4993084;28;20045;-79
2023/07/27 03:35:32;;;;;;;0.20;0.20;;;22.00;72.20;;;;;;5019311;28;20080;-79
2023/07/27 03:37:57;;;;;;;0.47;0.20;;;22.00;72.20;;;;;;5023791;28;20442;-79
2023/07/27 03:40:23;;;;;;;0.40;0.30;;;22.00;72.10;;;;;;5023617;28;20064;-79
2023/07/27 03:42:48;;;;;;;0.35;0.35;;;22.00;72.20;;;;;;5023166;28;20029;-79
2023/07/27 03:45:17;;;;;;;0.30;0.30;;;22.00;72.20;;;;;;5005854;28;20605;-79
2023/07/27 03:47:43;;;;;;;0.32;0.30;;;22.00;72.20;;;;;;5021811;28;20072;-78
2023/07/27 03:50:09;;;;;;;0.30;0.30;;;22.00;72.10;;;;;;5027204;28;20041;-78
2023/07/27 03:52:34;;;;;;;0.40;0.40;;;22.00;72.10;;;;;;5006620;28;20368;-78
2023/07/27 03:55:00;;;;;;;0.15;0.15;;;22.00;72.10;;;;;;4991514;28;20049;-78
2023/07/27 03:57:25;;;;;;;0.30;0.30;;;22.00;72.20;;;;;;5023331;28;20134;-79
2023/07/27 03:59:57;;;;;;;0.30;0.25;;;22.00;72.30;;;;;;5024293;28;20601;-79
2023/07/27 04:02:23;;;;;;;0.20;0.20;;;22.00;72.10;;;;;;5022802;28;20104;-79
2023/07/27 04:04:49;;;;;;;0.20;0.20;;;22.00;72.30;;;;;;5025188;28;20037;-78
2023/07/27 04:07:14;;;;;;;0.30;0.30;;;22.00;73.10;;;;;;5023991;28;20041;-79
2023/07/27 04:09:40;;;;;;;0.20;0.20;;;22.00;72.90;;;;;;5022835;28;21048;-79
2023/07/27 04:12:06;;;;;;;0.40;0.40;;;22.00;72.30;;;;;;5003565;28;20040;-79
2023/07/27 04:14:31;;;;;;;0.30;0.30;;;22.00;72.10;;;;;;5024765;28;20515;-79
2023/07/27 04:16:57;;;;;;;0.20;0.20;;;22.00;73.10;;;;;;5022571;28;20044;-78
2023/07/27 04:19:23;;;;;;;0.30;0.30;;;22.00;72.20;;;;;;5022227;28;20414;-79
2023/07/27 04:21:48;;;;;;;0.30;0.30;;;22.00;72.50;;;;;;5021605;28;20059;-79
2023/07/27 04:24:14;;;;;;;0.30;0.30;;;22.00;72.40;;;;;;5004692;28;20041;-79
2023/07/27 04:26:39;;;;;;;0.30;0.30;;;22.00;72.30;;;;;;5024924;28;20048;-79
2023/07/27 04:29:05;;;;;;;0.30;0.30;;;22.00;72.80;;;;;;5006400;28;20044;-78
2023/07/27 04:31:30;;;;;;;0.32;0.32;;;22.00;71.70;;;;;;5031269;28;20063;-77
2023/07/27 04:33:56;;;;;;;2.67;0.50;;;22.00;71.70;;;;;;4990839;28;20053;-77
2023/07/27 04:36:21;;;;;;;0.80;0.80;;;22.00;72.20;;;;;;4653351;28;10000114;-77
2023/07/27 04:38:47;;;;;;;1.10;1.00;;;22.00;72.40;;;;;;4983479;28;20057;-78
2023/07/27 04:41:13;;;;;;;1.10;1.00;;;21.90;72.90;;;;;;5021814;28;20046;-78
2023/07/27 04:43:39;;;;;;;1.10;1.10;;;21.80;73.00;;;;;;5020263;28;20091;-76
2023/07/27 04:46:04;;;;;;;1.50;1.20;;;21.80;73.50;;;;;;5012854;28;20079;-77
2023/07/27 04:48:30;;;;;;;1.30;1.20;;;21.60;73.80;;;;;;5016177;28;20168;-77
2023/07/27 04:50:55;;;;;;;1.20;1.10;;;21.70;73.70;;;;;;5000014;28;20069;-77
2023/07/27 04:53:21;;;;;;;1.40;1.30;;;21.60;73.90;;;;;;5019097;28;20124;-77
2023/07/27 04:55:46;;;;;;;1.40;1.30;;;21.60;74.00;;;;;;5020422;28;20046;-77
2023/07/27 04:58:12;;;;;;;1.45;1.35;;;21.70;73.80;;;;;;5016222;28;20493;-77
2023/07/27 05:00:37;;;;;;;1.33;1.20;;;21.60;73.90;;;;;;5017658;28;20044;-77
2023/07/27 05:03:03;;;;;;;1.20;1.20;;;21.60;73.60;;;;;;5018002;28;20076;-77
2023/07/27 05:05:28;;;;;;;1.67;1.58;;;21.60;73.70;;;;;;5020553;28;20041;-78
2023/07/27 05:07:54;;;;;;;1.30;1.27;;;21.60;73.90;;;;;;5022862;28;20503;-78
2023/07/27 05:10:20;;;;;;;1.55;1.45;;;21.60;73.70;;;;;;5018162;28;20046;-77
2023/07/27 05:12:45;;;;;;;1.67;1.42;;;21.50;73.90;;;;;;5020838;28;20148;-77
2023/07/27 05:15:11;;;;;;;1.40;1.30;;;21.60;73.70;;;;;;5023119;28;20045;-77
2023/07/27 05:17:36;;;;;;;1.83;1.40;;;21.50;73.90;;;;;;5023492;28;20049;-76
2023/07/27 05:20:02;;;;;;;1.83;1.50;;;21.60;73.90;;;;;;5022335;28;20053;-77
2023/07/27 05:22:28;;;;;;;1.88;1.77;;;21.50;74.00;;;;;;5020814;28;20598;-77
2023/07/27 05:24:53;;;;;;;1.77;1.67;;;21.60;73.90;;;;;;5019724;28;20033;-77
2023/07/27 05:27:19;;;;;;;1.70;1.60;;;21.60;73.80;;;;;;5020013;28;20069;-77
2023/07/27 05:29:44;;;;;;;1.92;1.83;;;21.60;73.70;;;;;;5021341;28;20180;-77
2023/07/27 05:32:10;;;;;;;1.58;1.48;;;21.60;73.90;;;;;;5005613;28;20042;-77
2023/07/27 05:34:36;;;;;;;1.85;1.58;;;21.50;73.60;;;;;;5021093;28;20053;-74
2023/07/27 05:37:01;;;;;;;1.88;1.77;;;21.50;73.90;;;;;;5019060;28;20041;-74
2023/07/27 05:39:30;;;;;;;2.20;2.10;;;21.50;74.00;;;;;;5021391;28;20777;-74
2023/07/27 05:41:55;;;;;;;2.35;2.20;;;21.50;73.90;;;;;;5025131;28;20125;-74
2023/07/27 05:44:21;;;;;;;2.67;2.03;;;21.40;74.00;;;;;;5021931;28;20534;-74
2023/07/27 05:46:49;;;;;;;2.08;1.98;;;21.40;74.10;;;;;;5023407;28;20049;-75
2023/07/27 05:49:15;;;;;;;2.05;1.95;;;21.40;74.00;;;;;;5000909;28;20045;-75
2023/07/27 05:51:40;;;;;;;2.22;2.13;;;21.50;74.00;;;;;;5023109;28;20518;-75
2023/07/27 05:54:06;;;;;;;1.75;1.65;;;21.50;74.10;;;;;;5022378;28;20084;-75
2023/07/27 05:56:31;;;;;;;2.03;1.92;;;21.50;74.10;;;;;;5020126;28;20096;-75
2023/07/27 05:58:57;;;;;;;2.08;1.98;;;21.50;74.10;;;;;;5004512;28;20077;-75
2023/07/27 06:01:23;;;;;;;1.90;1.80;;;21.50;74.00;;;;;;5022419;28;20494;-74
2023/07/27 06:03:48;;;;;;;2.00;1.90;;;21.50;74.10;;;;;;5004379;28;20041;-74
2023/07/27 06:06:15;;;;;;;2.03;1.92;;;21.50;74.20;;;;;;5022569;28;20107;-74
2023/07/27 06:08:41;;;;;;;2.40;2.20;;;21.50;74.10;;;;;;5006622;28;20473;-74
2023/07/27 06:11:09;;;;;;;2.88;2.20;;;21.50;74.10;;;;;;5005561;28;20065;-74
2023/07/27 06:13:35;;;;;;;2.25;2.15;;;21.40;74.30;;;;;;5004838;28;20045;-74
2023/07/27 06:16:00;;;;;;;2.22;2.10;;;21.40;74.60;;;;;;5001791;28;20049;-75
2023/07/27 06:18:26;;;;;;;2.00;1.90;;;21.40;74.90;;;;;;5005937;28;20042;-75
2023/07/27 06:20:52;;;;;;;2.40;2.20;;;21.30;75.00;;;;;;5000032;28;20046;-76
2023/07/27 06:23:19;;;;;;;2.38;2.25;;;21.40;75.30;;;;;;5002669;28;20045;-75
2023/07/27 06:25:44;;;;;;;2.33;2.13;;;21.40;75.00;;;;;;5001664;28;20053;-75
2023/07/27 06:28:10;;;;;;;2.20;2.10;;;21.30;75.00;;;;;;4985582;28;20040;-77
2023/07/27 06:30:36;;;;;;;2.13;2.03;;;21.30;75.70;;;;;;5003693;28;20525;-76
2023/07/27 06:33:02;;;;;;;3.05;2.08;;;21.30;75.50;;;;;;5024792;28;20524;-76
2023/07/27 06:35:28;;;;;;;2.50;2.30;;;21.30;75.30;;;;;;5023101;28;20099;-77
2023/07/27 06:37:54;;;;;;;2.53;2.03;;;21.40;75.40;;;;;;5026592;28;20049;-77
2023/07/27 06:40:19;;;;;;;1.65;1.55;;;21.40;75.40;;;;;;5026350;28;20045;-78
2023/07/27 06:42:45;;;;;;;1.83;1.73;;;21.50;75.50;;;;;;5008073;28;20049;-78
2023/07/27 06:45:10;;;;;;;1.90;1.63;;;21.50;75.30;;;;;;5023924;28;23598;-78
2023/07/27 06:47:36;;;;;;;2.15;1.90;;;21.50;75.30;;;;;;5025590;28;20404;-78
2023/07/27 06:50:02;;;;;;;1.80;1.70;;;21.50;75.20;;;;;;5040221;28;20474;-78
2023/07/27 06:52:28;;;;;;;2.40;2.20;;;21.50;75.10;;;;;;5026588;28;20064;-78
2023/07/27 06:54:54;;;;;;;2.30;2.17;;;21.50;75.00;;;;;;5020600;28;20495;-78
2023/07/27 06:57:20;;;;;;;1.83;1.73;;;21.60;74.90;;;;;;5027035;28;20498;-78
2023/07/27 06:59:46;;;;;;;2.05;1.77;;;21.60;74.90;;;;;;5026758;28;20041;-77
2023/07/27 07:02:11;;;;;;;1.70;1.60;;;21.60;74.70;;;;;;5026914;28;20060;-77
2023/07/27 07:04:37;;;;;;;1.85;1.75;;;21.60;74.80;;;;;;5056812;28;20455;-77
2023/07/27 07:07:02;;;;;;;1.90;1.80;;;21.60;74.80;;;;;;5024180;28;20050;-78
2023/07/27 07:09:28;;;;;;;1.85;1.75;;;21.60;74.40;;;;;;5024433;28;20048;-79
2023/07/27 07:11:53;;;;;;;1.70;1.60;;;21.60;74.10;;;;;;5027681;28;20498;-78
2023/07/27 07:14:19;;;;;;;1.77;1.60;;;21.60;74.30;;;;;;5024763;28;20083;-78
2023/07/27 07:16:44;;;;;;;1.80;1.70;;;21.60;74.40;;;;;;5024411;28;20124;-78
2023/07/27 07:19:10;;;;;;;1.83;1.73;;;21.70;74.60;;;;;;5006779;28;20510;-79
2023/07/27 07:21:36;;;;;;;1.70;1.60;;;21.70;74.50;;;;;;5021565;28;20115;-79
2023/07/27 07:24:02;;;;;;;1.77;1.67;;;21.70;74.30;;;;;;5022309;28;20079;-78
2023/07/27 07:26:27;;;;;;;1.67;1.58;;;21.70;74.30;;;;;;5020504;28;20065;-78
2023/07/27 07:28:53;;;;;;;1.80;1.70;;;21.70;73.90;;;;;;5025516;28;20559;-78
2023/07/27 07:31:18;;;;;;;2.30;1.88;;;21.70;73.80;;;;;;5025184;28;20042;-79
2023/07/27 07:33:44;;;;;;;1.83;1.73;;;21.70;73.70;;;;;;5005739;28;20064;-79
2023/07/27 07:36:10;;;;;;;1.38;1.33;;;21.70;73.70;;;;;;5022000;28;20080;-79
2023/07/27 07:38:35;;;;;;;1.67;1.60;;;21.70;73.60;;;;;;5024599;28;20434;-79
2023/07/27 07:41:01;;;;;;;2.00;1.90;;;21.70;73.50;;;;;;5026084;28;20044;-79
2023/07/27 07:43:26;;;;;;;1.60;1.50;;;21.70;73.50;;;;;;5024456;28;20510;-79
2023/07/27 07:45:52;;;;;;;1.67;1.58;;;21.70;73.40;;;;;;5021919;28;20049;-79
2023/07/27 07:48:17;;;;;;;1.77;1.67;;;21.70;73.30;;;;;;5023822;28;20561;-78
2023/07/27 07:50:43;;;;;;;3.38;2.38;;;21.70;73.30;;;;;;5023229;28;20034;-79
2023/07/27 07:53:09;;;;;;;1.92;1.83;;;21.80;73.30;;;;;;5025434;28;20042;-78
2023/07/27 07:55:38;;;;;;;1.83;1.73;;;21.80;73.40;;;;;;5022854;28;20045;-79
2023/07/27 07:58:03;;;;;;;2.15;2.05;;;21.70;73.20;;;;;;5035548;28;20069;-79
2023/07/27 08:00:29;;;;;;;1.55;1.45;;;21.70;73.10;;;;;;5022696;28;20530;-79
2023/07/27 08:02:54;;;;;;;1.90;1.67;;;21.70;73.00;;;;;;5005220;28;20112;-78
2023/07/27 08:05:20;;;;;;;2.00;1.90;;;21.80;73.20;;;;;;5006058;28;20125;-78
2023/07/27 08:07:45;;;;;;;1.73;1.58;;;21.80;73.20;;;;;;5024890;28;20068;-79
2023/07/27 08:10:11;;;;;;;2.22;1.65;;;21.80;73.20;;;;;;5019119;28;20490;-78
2023/07/27 08:12:38;;;;;;;1.60;1.50;;;21.80;73.80;;;;;;5022796;28;20052;-78
2023/07/27 08:15:04;;;;;;;1.73;1.63;;;21.80;72.90;;;;;;5023056;28;20096;-78
2023/07/27 08:17:30;;;;;;;1.63;1.52;;;21.80;73.00;;;;;;5007305;28;20094;-78
2023/07/27 08:19:56;;;;;;;1.85;1.75;;;21.80;73.10;;;;;;5022614;28;20049;-79
2023/07/27 08:22:21;;;;;;;1.65;1.55;;;21.80;73.00;;;;;;5023073;28;20499;-78
2023/07/27 08:24:47;;;;;;;1.75;1.65;;;21.80;72.90;;;;;;5024664;28;20483;-78
2023/07/27 08:27:13;;;;;;;1.58;1.48;;;21.80;73.00;;;;;;5020129;28;20041;-78
2023/07/27 08:29:39;;;;;;;2.00;1.90;;;21.80;72.90;;;;;;5024090;28;20056;-78
2023/07/27 08:32:05;;;;;;;1.70;1.50;;;21.80;73.80;;;;;;5008620;28;20041;-78
2023/07/27 08:34:30;;;;;;;1.70;1.60;;;21.80;72.80;;;;;;5021984;28;20502;-78
2023/07/27 08:36:56;;;;;;;1.58;1.50;;;21.80;72.80;;;;;;5022806;28;20080;-78
2023/07/27 08:39:22;;;;;;;1.70;1.60;;;21.80;72.80;;;;;;5022796;28;20048;-78
2023/07/27 08:41:47;;;;;;;1.67;1.58;;;21.80;72.80;;;;;;5006932;28;20412;-78
2023/07/27 08:44:13;;;;;;;2.25;2.15;;;21.80;72.90;;;;;;5021837;28;20041;-78
2023/07/27 08:46:40;;;;;;;1.85;1.75;;;21.80;72.90;;;;;;5039846;28;20065;-78
2023/07/27 08:49:05;;;;;;;2.42;1.90;;;21.80;72.80;;;;;;5025973;28;20068;-79
2023/07/27 08:51:31;;;;;;;1.60;1.50;;;21.80;72.90;;;;;;5027011;28;20519;-78
2023/07/27 08:53:56;;;;;;;1.73;1.63;;;21.80;72.80;;;;;;5006793;28;20042;-78
2023/07/27 08:56:23;;;;;;;1.83;1.73;;;21.80;72.70;;;;;;5006610;28;20061;-78
2023/07/27 08:58:49;;;;;;;1.67;1.58;;;21.80;72.80;;;;;;5057210;28;20515;-78
2023/07/27 09:01:15;;;;;;;1.83;1.73;;;21.80;72.80;;;;;;5026854;28;20048;-78
2023/07/27 09:03:42;;;;;;;1.80;1.70;;;21.80;72.70;;;;;;4992045;28;20038;-79
2023/07/27 09:06:08;;;;;;;2.17;1.50;;;21.80;72.50;;;;;;5020249;28;20746;-78
2023/07/27 09:08:33;;;;;;;1.95;1.85;;;21.80;72.60;;;;;;5027100;28;20045;-79
2023/07/27 09:11:06;;;;;;;2.00;1.90;;;21.80;72.50;;;;;;5010632;28;20133;-77
2023/07/27 09:13:32;;;;;;;2.03;1.80;;;21.80;72.60;;;;;;5010368;28;20042;-77
2023/07/27 09:15:57;;;;;;;1.58;1.48;;;21.80;72.50;;;;;;5026381;28;20052;-78
2023/07/27 09:18:23;;;;;;;1.80;1.70;;;21.80;72.50;;;;;;4987894;28;20577;-78
2023/07/27 09:20:48;;;;;;;2.00;1.90;;;21.90;72.50;;;;;;5011282;28;20052;-79
2023/07/27 09:23:20;;;;;;;1.88;1.77;;;21.90;72.40;;;;;;5026906;28;20507;-78
2023/07/27 09:25:55;;;;;;;1.92;1.83;;;21.80;72.40;;;;;;5062585;28;20418;-78
2023/07/27 09:28:27;;;;;;;1.92;1.83;;;21.90;72.50;;;;;;5023516;28;20069;-78
2023/07/27 09:30:59;;;;;;;1.77;1.67;;;21.80;72.30;;;;;;5025714;28;20042;-79
2023/07/27 09:33:25;;;;;;;1.85;1.75;;;21.90;72.30;;;;;;5054626;28;20056;-79
2023/07/27 09:35:51;;;;;;;1.70;1.60;;;21.90;72.40;;;;;;5027104;28;20042;-79
2023/07/27 09:38:23;;;;;;;1.88;1.77;;;21.90;72.30;;;;;;5026506;28;20573;-79
2023/07/27 09:40:49;;;;;;;2.00;1.90;;;21.90;72.30;;;;;;5028822;28;20060;-79
2023/07/27 09:43:15;;;;;;;2.20;2.10;;;21.90;72.30;;;;;;5025990;28;20053;-79
2023/07/27 09:45:40;;;;;;;1.92;1.83;;;21.90;72.30;;;;;;5026353;28;20041;-78
2023/07/27 09:48:06;;;;;;;1.95;1.85;;;21.90;72.30;;;;;;5024621;28;20041;-78
2023/07/27 09:50:34;;;;;;;1.70;1.60;;;21.90;73.00;;;;;;5008340;28;20045;-77
2023/07/27 09:53:01;;;;;;;1.77;1.67;;;21.90;72.40;;;;;;5030911;28;20060;-77
2023/07/27 09:55:27;;;;;;;1.80;1.70;;;21.90;72.60;;;;;;5017129;28;20128;-77
2023/07/27 09:57:53;;;;;;;1.95;1.85;;;21.90;72.60;;;;;;5027582;28;20064;-78
2023/07/27 10:00:19;;;;;;;1.70;1.60;;;21.90;72.60;;;;;;5006545;28;20061;-78
2023/07/27 10:02:44;;;;;;;1.90;1.80;;;21.90;72.40;;;;;;5026837;28;20038;-78
2023/07/27 10:05:10;;;;;;;2.40;2.30;;;21.90;72.50;;;;;;5031771;28;20136;-78
2023/07/27 10:07:35;;;;;;;2.03;1.88;;;21.90;72.30;;;;;;4999976;28;20049;-78
2023/07/27 10:10:23;;;;;;;2.00;1.90;;;21.90;72.30;;;;;;5026205;28;20052;-78
2023/07/27 10:12:48;;;;;;;1.88;1.77;;;21.90;72.20;;;;;;5020217;28;20046;-78
2023/07/27 10:15:20;;;;;;;2.17;2.08;;;21.90;72.70;;;;;;5025573;28;20057;-77
2023/07/27 10:17:50;;;;;;;1.83;1.73;;;21.90;72.50;;;;;;5024574;28;20045;-76
2023/07/27 10:20:26;;;;;;;2.60;1.95;;;22.00;72.70;;;;;;5027347;28;20046;-78
2023/07/27 10:22:53;;;;;;;1.85;1.75;;;22.00;72.60;;;;;;5025953;28;20105;-77
2023/07/27 10:25:19;;;;;;;1.92;1.83;;;22.00;72.80;;;;;;5022847;28;20053;-80
2023/07/27 10:27:54;;;;;;;2.28;2.08;;;22.00;73.10;;;;;;5027550;28;20533;-79
2023/07/27 10:30:21;;;;;;;5.38;2.90;;;22.00;73.30;;;;;;5025055;28;20060;-77
2023/07/27 10:33:15;;;;;;;7.07;4.65;;;22.00;73.60;;;;;;5023488;28;20030;-79
2023/07/27 10:36:07;;;;;;;6.82;4.82;;;22.00;74.70;;;;;;5022741;28;20124;-78
2023/07/27 10:38:35;;;;;;;3.92;3.63;;;22.00;74.60;;;;;;5023690;28;20582;-79
2023/07/27 10:41:16;;;;;;;2.83;2.63;;;22.00;75.00;;;;;;5052251;28;20503;-80
2023/07/27 10:44:07;;;;;;;3.13;2.60;;;22.00;76.10;;;;;;4667956;28;10000027;-76
2023/07/27 10:46:35;;;;;;;2.17;1.98;;;22.10;75.30;;;;;;5013811;28;20061;-76
2023/07/27 10:49:11;;;;;;;2.78;2.40;;;22.10;75.90;;;;;;5000740;28;20073;-76
2023/07/27 10:51:37;;;;;;;2.85;2.22;;;22.10;75.90;;;;;;5005884;28;20104;-76
2023/07/27 10:54:02;;;;;;;2.53;2.33;;;22.10;75.90;;;;;;5021549;28;20053;-76
2023/07/27 10:56:28;;;;;;;2.20;2.00;;;22.10;75.70;;;;;;5005101;28;20415;-76
2023/07/27 10:58:56;;;;;;;2.40;2.20;;;22.10;75.80;;;;;;5008379;28;20045;-76
2023/07/27 11:01:21;;;;;;;2.28;2.17;;;22.10;75.60;;;;;;5018038;28;20060;-76
2023/07/27 11:03:47;;;;;;;2.30;2.10;;;22.10;75.60;;;;;;5012680;28;20038;-76
2023/07/27 11:06:13;;;;;;;2.40;2.20;;;22.10;75.60;;;;;;5000792;28;20566;-75
2023/07/27 11:08:40;;;;;;;1.95;1.85;;;22.10;75.50;;;;;;5019956;28;20060;-76
2023/07/27 11:11:15;;;;;;;1.90;1.80;;;22.10;75.40;;;;;;5019169;28;20048;-76
2023/07/27 11:13:41;;;;;;;2.03;1.92;;;22.10;75.50;;;;;;5019875;28;20080;-75
2023/07/27 11:16:07;;;;;;;2.08;1.92;;;22.10;75.10;;;;;;5000514;28;20042;-75
2023/07/27 11:18:33;;;;;;;2.35;2.22;;;22.10;75.10;;;;;;5003731;28;20046;-76
2023/07/27 11:20:58;;;;;;;2.58;2.45;;;22.10;74.90;;;;;;5021658;28;20103;-76
2023/07/27 11:23:24;;;;;;;2.10;2.00;;;22.10;75.10;;;;;;4988293;28;20064;-75
2023/07/27 11:25:49;;;;;;;2.80;2.60;;;22.10;74.80;;;;;;5036457;28;20412;-75
2023/07/27 11:28:15;;;;;;;2.63;2.42;;;22.10;75.10;;;;;;5000901;28;20045;-75
2023/07/27 11:30:41;;;;;;;2.72;2.53;;;22.10;74.80;;;;;;5001440;28;20041;-76
2023/07/27 11:33:07;;;;;;;2.35;2.20;;;22.10;74.90;;;;;;5024067;28;20509;-76
2023/07/27 11:35:33;;;;;;;2.10;2.00;;;22.20;74.70;;;;;;5024777;28;20042;-76
2023/07/27 11:37:59;;;;;;;2.30;2.10;;;22.10;74.50;;;;;;5024193;28;20046;-76
2023/07/27 11:40:26;;;;;;;3.40;2.22;;;22.10;74.80;;;;;;5022193;28;20072;-75
2023/07/27 11:42:51;;;;;;;3.35;2.65;;;22.10;75.00;;;;;;5006470;28;20044;-76
2023/07/27 11:45:17;;;;;;;2.25;2.05;;;22.10;74.80;;;;;;5023999;28;20037;-76
2023/07/27 11:47:43;;;;;;;2.47;2.05;;;22.10;74.60;;;;;;5024768;28;20038;-75
2023/07/27 11:50:09;;;;;;;2.42;2.00;;;22.10;74.50;;;;;;5024592;28;20037;-76
2023/07/27 11:52:41;;;;;;;2.28;2.10;;;22.10;74.40;;;;;;5025739;28;20048;-75
2023/07/27 11:55:07;;;;;;;2.47;2.10;;;22.10;74.40;;;;;;5021048;28;20038;-75
2023/07/27 11:57:32;;;;;;;2.80;2.35;;;22.10;74.40;;;;;;5020016;28;20406;-76
2023/07/27 12:00:06;;;;;;;2.10;2.00;;;22.10;74.20;;;;;;5016655;28;20068;-76
2023/07/27 12:02:33;;;;;;;2.05;1.95;;;22.10;74.60;;;;;;5022828;28;20037;-77
2023/07/27 12:05:00;;;;;;;2.65;2.40;;;22.10;74.60;;;;;;5026297;28;20065;-76
2023/07/27 12:07:30;;;;;;;2.15;2.05;;;22.10;74.50;;;;;;5020785;28;20065;-76
2023/07/27 12:09:56;;;;;;;3.00;2.35;;;22.20;74.80;;;;;;5018618;28;20495;-76
2023/07/27 12:12:21;;;;;;;2.08;1.95;;;22.20;74.60;;;;;;5022311;28;20052;-77
2023/07/27 12:14:47;;;;;;;3.13;1.88;;;22.20;74.60;;;;;;5005857;28;20601;-76
2023/07/27 12:17:13;;;;;;;2.05;1.95;;;22.20;74.60;;;;;;5001360;28;20563;-77
2023/07/27 12:19:38;;;;;;;2.03;1.92;;;22.20;74.60;;;;;;5018251;28;20056;-78
2023/07/27 12:22:04;;;;;;;4.35;2.70;;;22.20;74.10;;;;;;5003562;28;20041;-77
2023/07/27 12:24:30;;;;;;;2.22;2.13;;;22.20;74.40;;;;;;5020520;28;20053;-77
2023/07/27 12:26:57;;;;;;;2.40;2.30;;;22.20;74.40;;;;;;5020215;28;20506;-77
2023/07/27 12:29:23;;;;;;;3.08;2.17;;;22.20;74.40;;;;;;5006374;28;20046;-77
2023/07/27 12:31:49;;;;;;;2.15;2.05;;;22.20;74.40;;;;;;5006784;28;20048;-77
2023/07/27 12:34:15;;;;;;;2.13;2.03;;;22.20;74.20;;;;;;5004001;28;20127;-77
2023/07/27 12:36:40;;;;;;;2.03;1.90;;;22.30;74.40;;;;;;5003185;28;20056;-77
2023/07/27 12:39:06;;;;;;;1.63;1.52;;;22.20;74.20;;;;;;5010473;28;20070;-77
2023/07/27 12:41:31;;;;;;;1.77;1.67;;;22.20;74.00;;;;;;5023767;28;20053;-77
2023/07/27 12:43:57;;;;;;;2.00;1.90;;;22.20;74.10;;;;;;4997556;28;20121;-78